Antikeros — SYPX — position and weather

sailwx.info

Track history (hours):
 
Tides and Currents Weather Stations Pressure Air Temp Water Temp Dewpoint Dewpoint Depression Visibility Wind Speed Wind Dir Waves Ship Positions

Antikeros

Last reported at 2018-Jun-13 23:36 UTC. Time now 2018-Jun-25 00:20 UTC.
Position N 25°53' W 079°26'.
Warning: this ship's position is 11 days out of date.

Length 228 m; draft 13.7 m.

Type: Tanker. MMSI: 240680000.

Date/timePositionNaut miles runAvg speedWind from/ knotsBaromVisibWave heightAir tempDewpointWater temp
2018-Jun-13 23:36N 25°53' W 079°26'215.1
2018-Jun-13 23:30N 25°52' W 079°27'815.3
2018-Jun-13 23:00N 25°44' W 079°29'815.4
2018-Jun-13 22:30N 25°37' W 079°30'1115.1
2018-Jun-13 21:48N 25°26' W 079°32'  
2018-Jun-10 17:33N 29°05' W 094°26'411.1
2018-Jun-10 17:13N 29°08' W 094°27'411.7
2018-Jun-10 16:53N 29°11' W 094°30'710.4
2018-Jun-10 16:14N 29°17' W 094°35'310.5
2018-Jun-10 15:59N 29°18' W 094°37'612.2
2018-Jun-10 15:30N 29°21' W 094°43'510.5
2018-Jun-10 14:59N 29°23' W 094°49'1010.6
2018-Jun-10 14:00N 29°33' W 094°54'5 9.8
2018-Jun-10 13:30N 29°37' W 094°57'4 8.6
2018-Jun-10 13:01N 29°41' W 094°59'4 6.8
2018-Jun-10 12:27N 29°44' W 095°02'3 5.3
2018-Jun-10 11:51N 29°46' W 095°05'  
2018-Jun-08 02:21N 29°45' W 095°06'0 0.0
2018-Jun-08 02:00N 29°45' W 095°06'1 1.9
2018-Jun-08 01:30N 29°46' W 095°05'4 7.6
2018-Jun-08 01:00N 29°44' W 095°01'4 8.3
2018-Jun-08 00:30N 29°40' W 094°59'611.2
2018-Jun-08 00:00N 29°35' W 094°56'612.6
2018-Jun-07 23:30N 29°30' W 094°52'612.7
2018-Jun-07 23:00N 29°24' W 094°49'611.4
2018-Jun-07 22:30N 29°21' W 094°44'713.3
2018-Jun-07 22:00N 29°18' W 094°37'611.4
2018-Jun-07 21:28N 29°15' W 094°31'3 0.4
2018-Jun-07 12:06N 29°14' W 094°27'0 0.0
2018-Jun-07 07:15N 29°14' W 094°27'0 0.0
2018-Jun-07 06:45N 29°14' W 094°27'0 0.0
2018-Jun-07 04:27N 29°14' W 094°27'0 0.0
2018-Jun-07 03:57N 29°14' W 094°27'0 0.0
2018-Jun-07 03:24N 29°14' W 094°27'0 0.0
2018-Jun-07 02:45N 29°14' W 094°27'0 0.0
2018-Jun-07 02:30N 29°14' W 094°27'0 0.0
2018-Jun-07 02:00N 29°14' W 094°27'0 0.0
2018-Jun-07 01:27N 29°14' W 094°27'0 0.0
2018-Jun-07 00:54N 29°14' W 094°27'0 0.0
2018-Jun-07 00:18N 29°14' W 094°27'0 0.0
2018-Jun-07 00:00N 29°14' W 094°27'0 0.0
2018-Jun-06 23:30N 29°14' W 094°27'0 0.0
2018-Jun-06 22:54N 29°14' W 094°27'0 0.0
2018-Jun-06 22:09N 29°14' W 094°27'0 0.1
2018-Jun-06 22:00N 29°14' W 094°27'0 0.0
2018-Jun-06 21:27N 29°14' W 094°27'0 0.0
2018-Jun-06 21:00N 29°14' W 094°27'0 0.0
2018-Jun-06 16:15N 29°14' W 094°27'0 0.1
2018-Jun-06 15:51N 29°14' W 094°27'0 0.0
2018-Jun-06 14:06N 29°14' W 094°27'0 0.0
2018-Jun-06 13:48N 29°14' W 094°27'0 0.0
2018-Jun-06 13:09N 29°14' W 094°27'0 0.1
2018-Jun-06 12:57N 29°14' W 094°27'0 0.0
2018-Jun-06 12:30N 29°14' W 094°27'0 0.0
2018-Jun-06 12:00N 29°14' W 094°27'0 0.0
2018-Jun-06 11:30N 29°14' W 094°27'0 0.0
2018-Jun-06 10:57N 29°14' W 094°27'0 0.0
2018-Jun-06 10:30N 29°14' W 094°27'0 0.0
2018-Jun-06 10:00N 29°14' W 094°27'0 0.0
2018-Jun-06 09:15N 29°14' W 094°27'0 0.0
2018-Jun-06 08:39N 29°14' W 094°27'0 0.0
2018-Jun-06 08:00N 29°14' W 094°27'0 0.0
2018-Jun-06 07:18N 29°14' W 094°27'0 0.0
2018-Jun-06 06:57N 29°14' W 094°27'0 0.0
2018-Jun-06 06:27N 29°14' W 094°27'0 0.0
2018-Jun-06 05:57N 29°14' W 094°27'0 0.0
2018-Jun-06 05:30N 29°14' W 094°27'0 0.0
2018-Jun-06 05:00N 29°14' W 094°27'0 0.0
2018-Jun-06 04:18N 29°14' W 094°27'0 0.0
2018-Jun-06 03:51N 29°14' W 094°27'0 0.0
2018-Jun-06 03:24N 29°14' W 094°27'0 0.0
2018-Jun-06 02:54N 29°14' W 094°27'0 0.0
2018-Jun-06 02:30N 29°14' W 094°27'0 0.0
2018-Jun-06 02:00N 29°14' W 094°27'0 0.0
2018-Jun-06 01:30N 29°14' W 094°27'0 0.0
2018-Jun-06 01:00N 29°14' W 094°27'0 0.0
2018-Jun-06 00:30N 29°14' W 094°27'0 0.1
2018-Jun-06 00:00N 29°14' W 094°27'0 0.0
2018-Jun-05 23:30N 29°14' W 094°27'0 0.0
2018-Jun-05 23:00N 29°14' W 094°27'0 0.0
2018-Jun-05 22:27N 29°14' W 094°27'0 0.0
2018-Jun-05 21:51N 29°14' W 094°27'0 0.0
2018-Jun-05 21:30N 29°14' W 094°27'0 0.0
2018-Jun-05 20:48N 29°14' W 094°27'0 0.0
2018-Jun-05 20:21N 29°14' W 094°27'0 0.0
2018-Jun-05 19:36N 29°14' W 094°27'0 0.0
2018-Jun-05 19:27N 29°14' W 094°27'0 0.0
2018-Jun-05 19:00N 29°14' W 094°27'0 0.0
2018-Jun-05 18:27N 29°14' W 094°27'0 0.0
2018-Jun-05 18:00N 29°14' W 094°27'0 0.0
2018-Jun-05 17:18N 29°14' W 094°27'0 0.0
2018-Jun-05 16:57N 29°14' W 094°27'0 0.0
2018-Jun-05 16:27N 29°14' W 094°27'0 0.1
2018-Jun-05 15:48N 29°14' W 094°27'0 0.1
2018-Jun-05 15:30N 29°14' W 094°27'0 0.0
2018-Jun-05 15:00N 29°14' W 094°27'0 0.1
2018-Jun-05 14:30N 29°14' W 094°27'0 0.0
2018-Jun-05 13:51N 29°14' W 094°27'0 0.0
2018-Jun-05 13:30N 29°14' W 094°27'0 0.0
2018-Jun-05 13:00N 29°14' W 094°27'0 0.1
2018-Jun-05 12:24N 29°14' W 094°27'0 0.1
2018-Jun-05 11:54N 29°14' W 094°27'0 0.0
2018-Jun-05 10:06N 29°14' W 094°27'0 0.0
2018-Jun-05 08:27N 29°14' W 094°27'0 0.0
2018-Jun-05 07:51N 29°14' W 094°27'0 0.0
2018-Jun-05 07:18N 29°14' W 094°27'0 0.0
2018-Jun-05 06:51N 29°14' W 094°27'0 0.0
2018-Jun-05 06:27N 29°14' W 094°27'0 0.3
2018-Jun-05 05:51N 29°14' W 094°27'0 0.8
2018-Jun-05 05:30N 29°14' W 094°27'510.0
2018-Jun-05 04:59N 29°10' W 094°23'612.4
2018-Jun-05 04:29N 29°07' W 094°17'613.2
2018-Jun-05 04:00N 29°03' W 094°11'713.3
2018-Jun-05 03:30N 28°59' W 094°05'713.4
2018-Jun-05 03:00N 28°55' W 093°59'713.6
2018-Jun-05 02:30N 28°51' W 093°53'713.5
2018-Jun-05 01:58N 28°47' W 093°46'613.7
2018-Jun-05 01:30N 28°43' W 093°40'714.0
2018-Jun-05 01:00N 28°39' W 093°34'  
Track history (hours):
 
Tides and Currents Weather Stations Pressure Air Temp Water Temp Dewpoint Dewpoint Depression Visibility Wind Speed Wind Dir Waves Ship Positions

Antikeros

Last reported at 2018-Jun-13 23:36 UTC. Time now 2018-Jun-25 00:20 UTC.
Position N 25°53' W 079°26'.
Warning: this ship's position is 11 days out of date.

Length 228 m; draft 13.7 m.

Type: Tanker. MMSI: 240680000.

Date/timePositionNaut miles runAvg speedWind from/ knotsBaromVisibWave heightAir tempDewpointWater temp
2018-Jun-13 23:36N 25°53' W 079°26'215.1
2018-Jun-13 23:30N 25°52' W 079°27'815.3
2018-Jun-13 23:00N 25°44' W 079°29'815.4
2018-Jun-13 22:30N 25°37' W 079°30'1115.1
2018-Jun-13 21:48N 25°26' W 079°32'  
2018-Jun-10 17:33N 29°05' W 094°26'411.1
2018-Jun-10 17:13N 29°08' W 094°27'411.7
2018-Jun-10 16:53N 29°11' W 094°30'710.4
2018-Jun-10 16:14N 29°17' W 094°35'310.5
2018-Jun-10 15:59N 29°18' W 094°37'612.2
2018-Jun-10 15:30N 29°21' W 094°43'510.5
2018-Jun-10 14:59N 29°23' W 094°49'1010.6
2018-Jun-10 14:00N 29°33' W 094°54'5 9.8
2018-Jun-10 13:30N 29°37' W 094°57'4 8.6
2018-Jun-10 13:01N 29°41' W 094°59'4 6.8
2018-Jun-10 12:27N 29°44' W 095°02'3 5.3
2018-Jun-10 11:51N 29°46' W 095°05'  
2018-Jun-08 02:21N 29°45' W 095°06'0 0.0
2018-Jun-08 02:00N 29°45' W 095°06'1 1.9
2018-Jun-08 01:30N 29°46' W 095°05'4 7.6
2018-Jun-08 01:00N 29°44' W 095°01'4 8.3
2018-Jun-08 00:30N 29°40' W 094°59'611.2
2018-Jun-08 00:00N 29°35' W 094°56'612.6
2018-Jun-07 23:30N 29°30' W 094°52'612.7
2018-Jun-07 23:00N 29°24' W 094°49'611.4
2018-Jun-07 22:30N 29°21' W 094°44'713.3
2018-Jun-07 22:00N 29°18' W 094°37'611.4
2018-Jun-07 21:28N 29°15' W 094°31'3 0.4
2018-Jun-07 12:06N 29°14' W 094°27'0 0.0
2018-Jun-07 07:15N 29°14' W 094°27'0 0.0
2018-Jun-07 06:45N 29°14' W 094°27'0 0.0
2018-Jun-07 04:27N 29°14' W 094°27'0 0.0
2018-Jun-07 03:57N 29°14' W 094°27'0 0.0
2018-Jun-07 03:24N 29°14' W 094°27'0 0.0
2018-Jun-07 02:45N 29°14' W 094°27'0 0.0
2018-Jun-07 02:30N 29°14' W 094°27'0 0.0
2018-Jun-07 02:00N 29°14' W 094°27'0 0.0
2018-Jun-07 01:27N 29°14' W 094°27'0 0.0
2018-Jun-07 00:54N 29°14' W 094°27'0 0.0
2018-Jun-07 00:18N 29°14' W 094°27'0 0.0
2018-Jun-07 00:00N 29°14' W 094°27'0 0.0
2018-Jun-06 23:30N 29°14' W 094°27'0 0.0
2018-Jun-06 22:54N 29°14' W 094°27'0 0.0
2018-Jun-06 22:09N 29°14' W 094°27'0 0.1
2018-Jun-06 22:00N 29°14' W 094°27'0 0.0
2018-Jun-06 21:27N 29°14' W 094°27'0 0.0
2018-Jun-06 21:00N 29°14' W 094°27'0 0.0
2018-Jun-06 16:15N 29°14' W 094°27'0 0.1
2018-Jun-06 15:51N 29°14' W 094°27'0 0.0
2018-Jun-06 14:06N 29°14' W 094°27'0 0.0
2018-Jun-06 13:48N 29°14' W 094°27'0 0.0
2018-Jun-06 13:09N 29°14' W 094°27'0 0.1
2018-Jun-06 12:57N 29°14' W 094°27'0 0.0
2018-Jun-06 12:30N 29°14' W 094°27'0 0.0
2018-Jun-06 12:00N 29°14' W 094°27'0 0.0
2018-Jun-06 11:30N 29°14' W 094°27'0 0.0
2018-Jun-06 10:57N 29°14' W 094°27'0 0.0
2018-Jun-06 10:30N 29°14' W 094°27'0 0.0
2018-Jun-06 10:00N 29°14' W 094°27'0 0.0
2018-Jun-06 09:15N 29°14' W 094°27'0 0.0
2018-Jun-06 08:39N 29°14' W 094°27'0 0.0
2018-Jun-06 08:00N 29°14' W 094°27'0 0.0
2018-Jun-06 07:18N 29°14' W 094°27'0 0.0
2018-Jun-06 06:57N 29°14' W 094°27'0 0.0
2018-Jun-06 06:27N 29°14' W 094°27'0 0.0
2018-Jun-06 05:57N 29°14' W 094°27'0 0.0
2018-Jun-06 05:30N 29°14' W 094°27'0 0.0
2018-Jun-06 05:00N 29°14' W 094°27'0 0.0
2018-Jun-06 04:18N 29°14' W 094°27'0 0.0
2018-Jun-06 03:51N 29°14' W 094°27'0 0.0
2018-Jun-06 03:24N 29°14' W 094°27'0 0.0
2018-Jun-06 02:54N 29°14' W 094°27'0 0.0
2018-Jun-06 02:30N 29°14' W 094°27'0 0.0
2018-Jun-06 02:00N 29°14' W 094°27'0 0.0
2018-Jun-06 01:30N 29°14' W 094°27'0 0.0
2018-Jun-06 01:00N 29°14' W 094°27'0 0.0
2018-Jun-06 00:30N 29°14' W 094°27'0 0.1
2018-Jun-06 00:00N 29°14' W 094°27'0 0.0
2018-Jun-05 23:30N 29°14' W 094°27'0 0.0
2018-Jun-05 23:00N 29°14' W 094°27'0 0.0
2018-Jun-05 22:27N 29°14' W 094°27'0 0.0
2018-Jun-05 21:51N 29°14' W 094°27'0 0.0
2018-Jun-05 21:30N 29°14' W 094°27'0 0.0
2018-Jun-05 20:48N 29°14' W 094°27'0 0.0
2018-Jun-05 20:21N 29°14' W 094°27'0 0.0
2018-Jun-05 19:36N 29°14' W 094°27'0 0.0
2018-Jun-05 19:27N 29°14' W 094°27'0 0.0
2018-Jun-05 19:00N 29°14' W 094°27'0 0.0
2018-Jun-05 18:27N 29°14' W 094°27'0 0.0
2018-Jun-05 18:00N 29°14' W 094°27'0 0.0
2018-Jun-05 17:18N 29°14' W 094°27'0 0.0
2018-Jun-05 16:57N 29°14' W 094°27'0 0.0
2018-Jun-05 16:27N 29°14' W 094°27'0 0.1
2018-Jun-05 15:48N 29°14' W 094°27'0 0.1
2018-Jun-05 15:30N 29°14' W 094°27'0 0.0
2018-Jun-05 15:00N 29°14' W 094°27'0 0.1
2018-Jun-05 14:30N 29°14' W 094°27'0 0.0
2018-Jun-05 13:51N 29°14' W 094°27'0 0.0
2018-Jun-05 13:30N 29°14' W 094°27'0 0.0
2018-Jun-05 13:00N 29°14' W 094°27'0 0.1
2018-Jun-05 12:24N 29°14' W 094°27'0 0.1
2018-Jun-05 11:54N 29°14' W 094°27'0 0.0
2018-Jun-05 10:06N 29°14' W 094°27'0 0.0
2018-Jun-05 08:27N 29°14' W 094°27'0 0.0
2018-Jun-05 07:51N 29°14' W 094°27'0 0.0
2018-Jun-05 07:18N 29°14' W 094°27'0 0.0
2018-Jun-05 06:51N 29°14' W 094°27'0 0.0
2018-Jun-05 06:27N 29°14' W 094°27'0 0.3
2018-Jun-05 05:51N 29°14' W 094°27'0 0.8
2018-Jun-05 05:30N 29°14' W 094°27'510.0
2018-Jun-05 04:59N 29°10' W 094°23'612.4
2018-Jun-05 04:29N 29°07' W 094°17'613.2
2018-Jun-05 04:00N 29°03' W 094°11'713.3
2018-Jun-05 03:30N 28°59' W 094°05'713.4
2018-Jun-05 03:00N 28°55' W 093°59'713.6
2018-Jun-05 02:30N 28°51' W 093°53'713.5
2018-Jun-05 01:58N 28°47' W 093°46'613.7
2018-Jun-05 01:30N 28°43' W 093°40'714.0
2018-Jun-05 01:00N 28°39' W 093°34'  

Dump ship's entire track history